sensor_id;sensor_type;location;lat;lon;timestamp;noise_LAeq;noise_LA_min;noise_LA_max;noise_LA01;noise_LA95
69619;Laerm;57653;51.434;5.984;2022-12-20T00:00:06;32.55;31.33;34.91;;
69619;Laerm;57653;51.434;5.984;2022-12-20T00:00:17;33.08;31.03;49.29;;
69619;Laerm;57653;51.434;5.984;2022-12-20T00:00:27;34.08;32.13;43.42;;
69619;Laerm;57653;51.434;5.984;2022-12-20T00:00:41;35.09;33.11;40.07;;
69619;Laerm;57653;51.434;5.984;2022-12-20T00:00:51;35.44;33.23;43.88;;
69619;Laerm;57653;51.434;5.984;2022-12-20T00:01:05;32.83;31.65;34.42;;
69619;Laerm;57653;51.434;5.984;2022-12-20T00:01:20;33.35;31.79;37.42;;
69619;Laerm;57653;51.434;5.984;2022-12-20T00:01:32;34.46;32.32;38.25;;
69619;Laerm;57653;51.434;5.984;2022-12-20T00:01:42;32.63;31.54;34.87;;
69619;Laerm;57653;51.434;5.984;2022-12-20T00:01:52;34.65;31.94;45.28;;
69619;Laerm;57653;51.434;5.984;2022-12-20T00:02:03;33.34;31.35;39.26;;
69619;Laerm;57653;51.434;5.984;2022-12-20T00:02:13;33.30;31.79;38.07;;
69619;Laerm;57653;51.434;5.984;2022-12-20T00:02:23;33.42;31.94;43.36;;
69619;Laerm;57653;51.434;5.984;2022-12-20T00:02:34;33.76;32.28;44.19;;
69619;Laerm;57653;51.434;5.984;2022-12-20T00:02:44;33.59;31.87;43.65;;
69619;Laerm;57653;51.434;5.984;2022-12-20T00:02:54;32.83;31.55;40.41;;
69619;Laerm;57653;51.434;5.984;2022-12-20T00:03:05;32.90;31.62;39.69;;
69619;Laerm;57653;51.434;5.984;2022-12-20T00:03:15;33.26;32.03;35.86;;
69619;Laerm;57653;51.434;5.984;2022-12-20T00:03:25;33.75;32.17;38.88;;
69619;Laerm;57653;51.434;5.984;2022-12-20T00:03:36;33.40;31.66;39.07;;
69619;Laerm;57653;51.434;5.984;2022-12-20T00:03:48;33.21;31.20;40.63;;
69619;Laerm;57653;51.434;5.984;2022-12-20T00:04:00;32.11;30.68;35.29;;
69619;Laerm;57653;51.434;5.984;2022-12-20T00:04:14;32.73;31.15;39.64;;
69619;Laerm;57653;51.434;5.984;2022-12-20T00:04:24;33.35;31.23;41.62;;
69619;Laerm;57653;51.434;5.984;2022-12-20T00:04:35;33.32;31.59;35.57;;
69619;Laerm;57653;51.434;5.984;2022-12-20T00:04:45;33.64;32.38;35.68;;
69619;Laerm;57653;51.434;5.984;2022-12-20T00:04:55;33.24;31.84;35.76;;
69619;Laerm;57653;51.434;5.984;2022-12-20T00:05:05;32.44;31.50;35.48;;
69619;Laerm;57653;51.434;5.984;2022-12-20T00:05:16;32.92;31.28;41.68;;
69619;Laerm;57653;51.434;5.984;2022-12-20T00:05:26;32.63;30.84;45.87;;
69619;Laerm;57653;51.434;5.984;2022-12-20T00:05:37;31.54;30.38;37.52;;
69619;Laerm;57653;51.434;5.984;2022-12-20T00:05:47;31.51;30.17;36.51;;
69619;Laerm;57653;51.434;5.984;2022-12-20T00:05:57;31.94;30.37;46.45;;
69619;Laerm;57653;51.434;5.984;2022-12-20T00:06:08;31.51;30.41;32.49;;
69619;Laerm;57653;51.434;5.984;2022-12-20T00:06:20;32.47;30.62;35.95;;
69619;Laerm;57653;51.434;5.984;2022-12-20T00:06:30;32.64;31.50;33.65;;
69619;Laerm;57653;51.434;5.984;2022-12-20T00:06:42;32.57;31.26;39.78;;
69619;Laerm;57653;51.434;5.984;2022-12-20T00:06:52;33.17;31.79;36.21;;
69619;Laerm;57653;51.434;5.984;2022-12-20T00:07:03;33.88;31.98;39.71;;
69619;Laerm;57653;51.434;5.984;2022-12-20T00:07:13;35.16;33.49;39.79;;
69619;Laerm;57653;51.434;5.984;2022-12-20T00:07:23;35.78;33.11;43.86;;
69619;Laerm;57653;51.434;5.984;2022-12-20T00:07:33;34.19;32.24;37.90;;
69619;Laerm;57653;51.434;5.984;2022-12-20T00:07:44;34.00;31.80;44.79;;
69619;Laerm;57653;51.434;5.984;2022-12-20T00:07:54;33.56;31.82;36.96;;
69619;Laerm;57653;51.434;5.984;2022-12-20T00:08:05;33.66;32.22;36.79;;
69619;Laerm;57653;51.434;5.984;2022-12-20T00:08:15;33.59;32.24;37.24;;
69619;Laerm;57653;51.434;5.984;2022-12-20T00:08:25;33.50;32.14;36.44;;
69619;Laerm;57653;51.434;5.984;2022-12-20T00:08:36;33.74;32.08;39.56;;
69619;Laerm;57653;51.434;5.984;2022-12-20T00:08:46;34.51;31.89;45.12;;
69619;Laerm;57653;51.434;5.984;2022-12-20T00:09:02;33.34;31.28;40.96;;
69619;Laerm;57653;51.434;5.984;2022-12-20T00:09:13;33.24;31.72;35.71;;
69619;Laerm;57653;51.434;5.984;2022-12-20T00:09:23;34.02;32.66;36.15;;
69619;Laerm;57653;51.434;5.984;2022-12-20T00:09:34;34.49;32.55;36.36;;
69619;Laerm;57653;51.434;5.984;2022-12-20T00:09:44;33.11;31.65;39.77;;
69619;Laerm;57653;51.434;5.984;2022-12-20T00:09:54;33.02;31.78;39.81;;
69619;Laerm;57653;51.434;5.984;2022-12-20T00:10:05;34.07;32.30;41.26;;
69619;Laerm;57653;51.434;5.984;2022-12-20T00:10:15;35.61;32.06;43.53;;
69619;Laerm;57653;51.434;5.984;2022-12-20T00:10:26;33.47;31.63;38.34;;
69619;Laerm;57653;51.434;5.984;2022-12-20T00:10:37;32.37;31.36;33.23;;
69619;Laerm;57653;51.434;5.984;2022-12-20T00:10:47;32.11;31.06;34.39;;
69619;Laerm;57653;51.434;5.984;2022-12-20T00:10:58;31.87;30.78;36.52;;
69619;Laerm;57653;51.434;5.984;2022-12-20T00:11:09;32.49;30.97;36.44;;
69619;Laerm;57653;51.434;5.984;2022-12-20T00:11:19;33.85;31.84;40.60;;
69619;Laerm;57653;51.434;5.984;2022-12-20T00:11:29;33.90;31.96;41.72;;
69619;Laerm;57653;51.434;5.984;2022-12-20T00:11:40;33.23;31.35;48.81;;
69619;Laerm;57653;51.434;5.984;2022-12-20T00:11:50;33.82;31.41;42.75;;
69619;Laerm;57653;51.434;5.984;2022-12-20T00:12:01;32.41;31.25;39.68;;
69619;Laerm;57653;51.434;5.984;2022-12-20T00:12:11;32.09;30.74;33.14;;
69619;Laerm;57653;51.434;5.984;2022-12-20T00:12:21;32.48;30.90;42.30;;
69619;Laerm;57653;51.434;5.984;2022-12-20T00:12:31;31.96;30.21;34.66;;
69619;Laerm;57653;51.434;5.984;2022-12-20T00:12:41;31.82;30.51;33.17;;
69619;Laerm;57653;51.434;5.984;2022-12-20T00:12:52;31.65;30.65;34.60;;
69619;Laerm;57653;51.434;5.984;2022-12-20T00:13:02;32.33;30.38;35.40;;
69619;Laerm;57653;51.434;5.984;2022-12-20T00:13:12;32.69;31.36;40.29;;
69619;Laerm;57653;51.434;5.984;2022-12-20T00:13:23;31.80;30.43;35.06;;
69619;Laerm;57653;51.434;5.984;2022-12-20T00:13:33;31.59;30.56;32.75;;
69619;Laerm;57653;51.434;5.984;2022-12-20T00:13:45;32.27;30.91;38.15;;
69619;Laerm;57653;51.434;5.984;2022-12-20T00:13:55;32.39;30.91;34.18;;
69619;Laerm;57653;51.434;5.984;2022-12-20T00:14:06;34.05;31.97;40.53;;
69619;Laerm;57653;51.434;5.984;2022-12-20T00:14:17;33.62;31.97;39.82;;
69619;Laerm;57653;51.434;5.984;2022-12-20T00:14:27;33.20;31.74;41.21;;
69619;Laerm;57653;51.434;5.984;2022-12-20T00:14:37;32.93;31.17;41.72;;
69619;Laerm;57653;51.434;5.984;2022-12-20T00:14:47;32.39;31.14;37.24;;
69619;Laerm;57653;51.434;5.984;2022-12-20T00:14:58;32.98;31.27;40.24;;
69619;Laerm;57653;51.434;5.984;2022-12-20T00:15:08;32.38;31.23;37.07;;
69619;Laerm;57653;51.434;5.984;2022-12-20T00:15:19;34.86;31.47;38.45;;
69619;Laerm;57653;51.434;5.984;2022-12-20T00:15:29;56.69;36.00;62.85;;
69619;Laerm;57653;51.434;5.984;2022-12-20T00:15:40;60.91;58.23;63.96;;
69619;Laerm;57653;51.434;5.984;2022-12-20T00:16:01;53.88;41.34;61.38;;
69619;Laerm;57653;51.434;5.984;2022-12-20T00:16:13;37.20;32.70;42.99;;
69619;Laerm;57653;51.434;5.984;2022-12-20T00:16:25;33.14;31.87;34.77;;
69619;Laerm;57653;51.434;5.984;2022-12-20T00:16:36;33.06;31.89;34.82;;
69619;Laerm;57653;51.434;5.984;2022-12-20T00:16:47;32.86;31.60;39.53;;
69619;Laerm;57653;51.434;5.984;2022-12-20T00:16:57;34.01;32.03;44.65;;
69619;Laerm;57653;51.434;5.984;2022-12-20T00:17:07;33.31;31.85;39.63;;
69619;Laerm;57653;51.434;5.984;2022-12-20T00:17:17;33.57;31.82;38.07;;
69619;Laerm;57653;51.434;5.984;2022-12-20T00:17:28;33.75;32.36;37.94;;
69619;Laerm;57653;51.434;5.984;2022-12-20T00:17:38;33.21;32.12;34.49;;
69619;Laerm;57653;51.434;5.984;2022-12-20T00:17:48;33.04;31.77;34.53;;
69619;Laerm;57653;51.434;5.984;2022-12-20T00:17:59;33.54;31.52;40.62;;
69619;Laerm;57653;51.434;5.984;2022-12-20T00:18:09;32.99;31.51;38.85;;
69619;Laerm;57653;51.434;5.984;2022-12-20T00:18:19;32.42;31.42;34.14;;
69619;Laerm;57653;51.434;5.984;2022-12-20T00:18:29;33.06;31.51;38.23;;
69619;Laerm;57653;51.434;5.984;2022-12-20T00:18:40;33.29;31.14;39.74;;
69619;Laerm;57653;51.434;5.984;2022-12-20T00:18:57;34.08;31.62;41.84;;
69619;Laerm;57653;51.434;5.984;2022-12-20T00:19:09;33.66;32.04;37.89;;
69619;Laerm;57653;51.434;5.984;2022-12-20T00:19:19;33.49;32.13;34.90;;
69619;Laerm;57653;51.434;5.984;2022-12-20T00:19:29;33.05;32.02;34.50;;
69619;Laerm;57653;51.434;5.984;2022-12-20T00:19:42;33.45;31.85;37.69;;
69619;Laerm;57653;51.434;5.984;2022-12-20T00:19:52;33.36;32.09;35.43;;
69619;Laerm;57653;51.434;5.984;2022-12-20T00:20:02;34.55;33.11;37.33;;
69619;Laerm;57653;51.434;5.984;2022-12-20T00:20:13;34.95;33.82;37.93;;
69619;Laerm;57653;51.434;5.984;2022-12-20T00:20:24;34.70;32.66;36.93;;
69619;Laerm;57653;51.434;5.984;2022-12-20T00:20:34;34.97;33.49;37.35;;
69619;Laerm;57653;51.434;5.984;2022-12-20T00:20:44;48.65;34.42;58.56;;
69619;Laerm;57653;51.434;5.984;2022-12-20T00:20:58;65.24;57.15;69.29;;
69619;Laerm;57653;51.434;5.984;2022-12-20T00:21:10;65.32;59.64;69.68;;
69619;Laerm;57653;51.434;5.984;2022-12-20T00:21:21;61.46;36.52;67.85;;
69619;Laerm;57653;51.434;5.984;2022-12-20T00:21:32;35.44;31.91;38.58;;
69619;Laerm;57653;51.434;5.984;2022-12-20T00:21:42;33.04;31.21;42.53;;
69619;Laerm;57653;51.434;5.984;2022-12-20T00:21:53;32.63;31.49;34.38;;
69619;Laerm;57653;51.434;5.984;2022-12-20T00:22:03;32.57;31.47;33.63;;
69619;Laerm;57653;51.434;5.984;2022-12-20T00:22:13;32.24;31.20;34.91;;
69619;Laerm;57653;51.434;5.984;2022-12-20T00:22:23;32.37;30.92;39.58;;
69619;Laerm;57653;51.434;5.984;2022-12-20T00:22:34;32.24;30.97;37.12;;
69619;Laerm;57653;51.434;5.984;2022-12-20T00:22:44;32.33;31.10;34.94;;
69619;Laerm;57653;51.434;5.984;2022-12-20T00:22:54;32.29;30.95;34.86;;
69619;Laerm;57653;51.434;5.984;2022-12-20T00:23:05;33.24;31.19;48.89;;
69619;Laerm;57653;51.434;5.984;2022-12-20T00:23:15;33.22;31.50;34.91;;
69619;Laerm;57653;51.434;5.984;2022-12-20T00:23:25;34.33;32.76;40.69;;
69619;Laerm;57653;51.434;5.984;2022-12-20T00:23:36;35.59;32.72;45.69;;
69619;Laerm;57653;51.434;5.984;2022-12-20T00:23:47;33.64;32.12;41.17;;
69619;Laerm;57653;51.434;5.984;2022-12-20T00:23:57;32.71;31.64;33.62;;
69619;Laerm;57653;51.434;5.984;2022-12-20T00:24:08;32.88;31.39;37.93;;
69619;Laerm;57653;51.434;5.984;2022-12-20T00:24:19;33.34;32.04;40.35;;
69619;Laerm;57653;51.434;5.984;2022-12-20T00:24:29;33.90;32.48;37.71;;
69619;Laerm;57653;51.434;5.984;2022-12-20T00:24:39;34.26;32.94;36.98;;
69619;Laerm;57653;51.434;5.984;2022-12-20T00:24:49;35.44;33.55;42.17;;
69619;Laerm;57653;51.434;5.984;2022-12-20T00:25:00;33.68;32.36;34.97;;
69619;Laerm;57653;51.434;5.984;2022-12-20T00:25:10;33.69;32.06;38.73;;
69619;Laerm;57653;51.434;5.984;2022-12-20T00:25:20;32.79;31.49;35.30;;
69619;Laerm;57653;51.434;5.984;2022-12-20T00:25:31;33.23;31.51;44.70;;
69619;Laerm;57653;51.434;5.984;2022-12-20T00:25:41;33.05;31.67;41.87;;
69619;Laerm;57653;51.434;5.984;2022-12-20T00:25:51;33.17;31.69;35.20;;
69619;Laerm;57653;51.434;5.984;2022-12-20T00:26:02;32.95;31.69;33.83;;
69619;Laerm;57653;51.434;5.984;2022-12-20T00:26:17;32.56;31.51;33.88;;
69619;Laerm;57653;51.434;5.984;2022-12-20T00:26:28;33.13;31.75;36.78;;
69619;Laerm;57653;51.434;5.984;2022-12-20T00:26:39;33.69;31.94;39.32;;
69619;Laerm;57653;51.434;5.984;2022-12-20T00:26:49;33.14;31.81;38.04;;
69619;Laerm;57653;51.434;5.984;2022-12-20T00:26:59;33.27;32.10;38.68;;
69619;Laerm;57653;51.434;5.984;2022-12-20T00:27:09;33.84;32.66;42.96;;
69619;Laerm;57653;51.434;5.984;2022-12-20T00:27:20;33.02;31.73;37.17;;
69619;Laerm;57653;51.434;5.984;2022-12-20T00:27:30;34.66;31.76;42.09;;
69619;Laerm;57653;51.434;5.984;2022-12-20T00:27:40;32.66;31.04;37.89;;
69619;Laerm;57653;51.434;5.984;2022-12-20T00:27:50;32.07;30.78;35.41;;
69619;Laerm;57653;51.434;5.984;2022-12-20T00:28:01;31.99;30.67;33.47;;
69619;Laerm;57653;51.434;5.984;2022-12-20T00:28:13;31.95;30.89;33.65;;
69619;Laerm;57653;51.434;5.984;2022-12-20T00:28:23;31.80;30.84;32.66;;
69619;Laerm;57653;51.434;5.984;2022-12-20T00:28:33;31.99;30.77;33.94;;
69619;Laerm;57653;51.434;5.984;2022-12-20T00:28:44;32.85;31.02;46.67;;
69619;Laerm;57653;51.434;5.984;2022-12-20T00:28:55;32.99;31.40;36.44;;
69619;Laerm;57653;51.434;5.984;2022-12-20T00:29:05;33.97;31.73;46.16;;
69619;Laerm;57653;51.434;5.984;2022-12-20T00:29:16;33.21;31.81;35.98;;
69619;Laerm;57653;51.434;5.984;2022-12-20T00:29:26;33.42;31.91;39.79;;
69619;Laerm;57653;51.434;5.984;2022-12-20T00:29:36;33.25;32.07;38.32;;
69619;Laerm;57653;51.434;5.984;2022-12-20T00:29:46;33.89;32.00;40.83;;
69619;Laerm;57653;51.434;5.984;2022-12-20T00:29:57;33.06;31.85;35.60;;
69619;Laerm;57653;51.434;5.984;2022-12-20T00:30:07;33.12;31.61;44.47;;
69619;Laerm;57653;51.434;5.984;2022-12-20T00:30:17;33.06;31.62;41.36;;
69619;Laerm;57653;51.434;5.984;2022-12-20T00:30:28;32.41;31.14;36.64;;
69619;Laerm;57653;51.434;5.984;2022-12-20T00:30:38;32.20;31.23;33.47;;
69619;Laerm;57653;51.434;5.984;2022-12-20T00:30:52;32.19;31.01;37.91;;
69619;Laerm;57653;51.434;5.984;2022-12-20T00:31:02;32.72;30.74;41.35;;
69619;Laerm;57653;51.434;5.984;2022-12-20T00:31:13;35.97;32.06;49.24;;
69619;Laerm;57653;51.434;5.984;2022-12-20T00:31:25;33.36;32.26;34.71;;
69619;Laerm;57653;51.434;5.984;2022-12-20T00:31:35;33.31;31.31;38.53;;
69619;Laerm;57653;51.434;5.984;2022-12-20T00:31:45;32.89;31.07;45.01;;
69619;Laerm;57653;51.434;5.984;2022-12-20T00:31:56;32.34;31.37;37.01;;
69619;Laerm;57653;51.434;5.984;2022-12-20T00:32:06;33.18;31.61;34.43;;
69619;Laerm;57653;51.434;5.984;2022-12-20T00:32:16;33.63;32.41;34.99;;
69619;Laerm;57653;51.434;5.984;2022-12-20T00:32:26;34.10;31.82;51.06;;
69619;Laerm;57653;51.434;5.984;2022-12-20T00:32:37;32.70;31.27;44.47;;
69619;Laerm;57653;51.434;5.984;2022-12-20T00:32:47;32.62;30.94;39.03;;
69619;Laerm;57653;51.434;5.984;2022-12-20T00:32:57;33.31;31.09;43.06;;
69619;Laerm;57653;51.434;5.984;2022-12-20T00:33:07;32.19;31.01;37.04;;
69619;Laerm;57653;51.434;5.984;2022-12-20T00:33:19;32.13;30.73;33.41;;
69619;Laerm;57653;51.434;5.984;2022-12-20T00:33:29;32.25;30.68;36.63;;
69619;Laerm;57653;51.434;5.984;2022-12-20T00:33:40;32.02;30.93;34.37;;
69619;Laerm;57653;51.434;5.984;2022-12-20T00:33:51;31.99;30.83;37.18;;
69619;Laerm;57653;51.434;5.984;2022-12-20T00:34:02;32.12;30.82;33.23;;
69619;Laerm;57653;51.434;5.984;2022-12-20T00:34:12;32.72;30.95;46.30;;
69619;Laerm;57653;51.434;5.984;2022-12-20T00:34:23;33.59;31.84;40.05;;
69619;Laerm;57653;51.434;5.984;2022-12-20T00:34:33;32.61;31.58;36.50;;
69619;Laerm;57653;51.434;5.984;2022-12-20T00:34:43;33.18;31.65;43.57;;
69619;Laerm;57653;51.434;5.984;2022-12-20T00:34:53;33.18;31.36;37.87;;
69619;Laerm;57653;51.434;5.984;2022-12-20T00:35:04;34.28;32.00;40.07;;
69619;Laerm;57653;51.434;5.984;2022-12-20T00:35:14;33.34;32.01;36.04;;
69619;Laerm;57653;51.434;5.984;2022-12-20T00:35:24;33.24;31.49;40.90;;
69619;Laerm;57653;51.434;5.984;2022-12-20T00:35:35;34.24;32.04;41.43;;
69619;Laerm;57653;51.434;5.984;2022-12-20T00:35:45;35.74;31.94;44.08;;
69619;Laerm;57653;51.434;5.984;2022-12-20T00:35:55;33.22;31.60;37.10;;
69619;Laerm;57653;51.434;5.984;2022-12-20T00:36:06;32.97;31.10;40.50;;
69619;Laerm;57653;51.434;5.984;2022-12-20T00:36:17;33.59;31.72;35.83;;
69619;Laerm;57653;51.434;5.984;2022-12-20T00:36:29;35.10;33.29;36.54;;
69619;Laerm;57653;51.434;5.984;2022-12-20T00:36:39;33.39;31.01;39.05;;
69619;Laerm;57653;51.434;5.984;2022-12-20T00:36:50;32.77;31.14;42.40;;
69619;Laerm;57653;51.434;5.984;2022-12-20T00:37:00;33.36;31.79;37.31;;
69619;Laerm;57653;51.434;5.984;2022-12-20T00:37:10;34.18;32.31;38.74;;
69619;Laerm;57653;51.434;5.984;2022-12-20T00:37:20;33.41;31.91;38.49;;
69619;Laerm;57653;51.434;5.984;2022-12-20T00:37:31;33.42;32.00;37.11;;
69619;Laerm;57653;51.434;5.984;2022-12-20T00:37:41;33.16;31.71;37.79;;
69619;Laerm;57653;51.434;5.984;2022-12-20T00:37:51;34.06;31.59;43.54;;
69619;Laerm;57653;51.434;5.984;2022-12-20T00:38:01;32.73;31.37;36.82;;
69619;Laerm;57653;51.434;5.984;2022-12-20T00:38:12;32.05;30.94;33.02;;
69619;Laerm;57653;51.434;5.984;2022-12-20T00:38:22;32.01;30.37;35.82;;
69619;Laerm;57653;51.434;5.984;2022-12-20T00:38:33;31.96;30.76;34.24;;
69619;Laerm;57653;51.434;5.984;2022-12-20T00:38:44;32.29;30.83;35.29;;
69619;Laerm;57653;51.434;5.984;2022-12-20T00:38:55;32.38;30.95;39.06;;
69619;Laerm;57653;51.434;5.984;2022-12-20T00:39:06;33.53;31.54;45.65;;
69619;Laerm;57653;51.434;5.984;2022-12-20T00:39:16;33.70;31.87;44.10;;
69619;Laerm;57653;51.434;5.984;2022-12-20T00:39:26;33.79;32.35;38.36;;
69619;Laerm;57653;51.434;5.984;2022-12-20T00:39:37;33.93;32.68;36.13;;
69619;Laerm;57653;51.434;5.984;2022-12-20T00:39:47;33.56;32.42;35.96;;
69619;Laerm;57653;51.434;5.984;2022-12-20T00:39:57;33.77;32.32;37.31;;
69619;Laerm;57653;51.434;5.984;2022-12-20T00:40:08;34.50;32.41;36.44;;
69619;Laerm;57653;51.434;5.984;2022-12-20T00:40:18;33.88;32.45;41.60;;
69619;Laerm;57653;51.434;5.984;2022-12-20T00:40:28;33.06;31.54;38.42;;
69619;Laerm;57653;51.434;5.984;2022-12-20T00:40:38;32.13;31.03;33.88;;
69619;Laerm;57653;51.434;5.984;2022-12-20T00:40:59;32.95;30.96;41.76;;
69619;Laerm;57653;51.434;5.984;2022-12-20T00:41:10;33.07;31.21;38.67;;
69619;Laerm;57653;51.434;5.984;2022-12-20T00:41:24;35.11;33.51;39.90;;
69619;Laerm;57653;51.434;5.984;2022-12-20T00:41:35;34.59;32.36;42.16;;
69619;Laerm;57653;51.434;5.984;2022-12-20T00:41:45;34.07;32.05;44.09;;
69619;Laerm;57653;51.434;5.984;2022-12-20T00:41:56;33.14;32.00;38.43;;
69619;Laerm;57653;51.434;5.984;2022-12-20T00:42:06;34.42;32.28;37.73;;
69619;Laerm;57653;51.434;5.984;2022-12-20T00:42:16;45.00;33.98;54.70;;
69619;Laerm;57653;51.434;5.984;2022-12-20T00:42:26;61.17;52.93;65.09;;
69619;Laerm;57653;51.434;5.984;2022-12-20T00:42:37;61.58;59.72;63.73;;
69619;Laerm;57653;51.434;5.984;2022-12-20T00:42:47;58.48;48.01;62.49;;
69619;Laerm;57653;51.434;5.984;2022-12-20T00:42:57;40.09;32.05;48.72;;
69619;Laerm;57653;51.434;5.984;2022-12-20T00:43:08;32.72;31.41;35.64;;
69619;Laerm;57653;51.434;5.984;2022-12-20T00:43:18;32.33;30.82;40.89;;
69619;Laerm;57653;51.434;5.984;2022-12-20T00:43:28;32.20;30.39;40.42;;
69619;Laerm;57653;51.434;5.984;2022-12-20T00:43:39;32.17;30.98;36.22;;
69619;Laerm;57653;51.434;5.984;2022-12-20T00:43:50;32.55;30.88;44.39;;
69619;Laerm;57653;51.434;5.984;2022-12-20T00:44:01;33.34;30.93;46.47;;
69619;Laerm;57653;51.434;5.984;2022-12-20T00:44:11;35.36;32.32;43.08;;
69619;Laerm;57653;51.434;5.984;2022-12-20T00:44:21;35.41;33.48;43.53;;
69619;Laerm;57653;51.434;5.984;2022-12-20T00:44:32;34.18;33.07;36.75;;
69619;Laerm;57653;51.434;5.984;2022-12-20T00:44:42;34.22;32.74;38.65;;
69619;Laerm;57653;51.434;5.984;2022-12-20T00:44:52;34.40;31.66;41.97;;
69619;Laerm;57653;51.434;5.984;2022-12-20T00:45:02;33.16;31.57;40.07;;
69619;Laerm;57653;51.434;5.984;2022-12-20T00:45:13;32.89;31.26;41.60;;
69619;Laerm;57653;51.434;5.984;2022-12-20T00:45:23;32.39;31.16;35.29;;
69619;Laerm;57653;51.434;5.984;2022-12-20T00:45:33;32.34;31.23;33.89;;
69619;Laerm;57653;51.434;5.984;2022-12-20T00:45:44;32.18;30.89;34.08;;
69619;Laerm;57653;51.434;5.984;2022-12-20T00:45:54;32.87;31.16;35.12;;
69619;Laerm;57653;51.434;5.984;2022-12-20T00:46:04;35.05;32.89;42.77;;
69619;Laerm;57653;51.434;5.984;2022-12-20T00:46:15;35.66;33.86;37.87;;
69619;Laerm;57653;51.434;5.984;2022-12-20T00:46:26;34.54;32.46;41.33;;
69619;Laerm;57653;51.434;5.984;2022-12-20T00:46:37;34.18;31.79;44.29;;
69619;Laerm;57653;51.434;5.984;2022-12-20T00:46:47;33.36;31.73;36.86;;
69619;Laerm;57653;51.434;5.984;2022-12-20T00:46:57;34.15;32.52;40.84;;
69619;Laerm;57653;51.434;5.984;2022-12-20T00:47:08;34.44;32.33;36.90;;
69619;Laerm;57653;51.434;5.984;2022-12-20T00:47:18;35.41;33.47;42.03;;
69619;Laerm;57653;51.434;5.984;2022-12-20T00:47:28;38.83;33.94;50.45;;
69619;Laerm;57653;51.434;5.984;2022-12-20T00:47:38;38.98;34.05;48.09;;
69619;Laerm;57653;51.434;5.984;2022-12-20T00:47:49;36.50;32.96;44.57;;
69619;Laerm;57653;51.434;5.984;2022-12-20T00:47:59;34.00;31.85;41.38;;
69619;Laerm;57653;51.434;5.984;2022-12-20T00:48:09;33.49;32.02;47.17;;
69619;Laerm;57653;51.434;5.984;2022-12-20T00:48:20;33.22;31.87;38.35;;
69619;Laerm;57653;51.434;5.984;2022-12-20T00:48:30;32.99;31.54;35.94;;
69619;Laerm;57653;51.434;5.984;2022-12-20T00:48:41;33.73;32.04;36.71;;
69619;Laerm;57653;51.434;5.984;2022-12-20T00:48:51;32.66;31.09;34.80;;
69619;Laerm;57653;51.434;5.984;2022-12-20T00:49:02;32.51;30.93;38.22;;
69619;Laerm;57653;51.434;5.984;2022-12-20T00:49:12;32.28;31.01;35.24;;
69619;Laerm;57653;51.434;5.984;2022-12-20T00:49:22;32.94;31.77;34.23;;
69619;Laerm;57653;51.434;5.984;2022-12-20T00:49:33;35.69;32.61;40.73;;
69619;Laerm;57653;51.434;5.984;2022-12-20T00:49:43;33.26;31.20;35.98;;
69619;Laerm;57653;51.434;5.984;2022-12-20T00:49:53;32.74;31.57;34.51;;
69619;Laerm;57653;51.434;5.984;2022-12-20T00:50:03;33.06;31.55;38.82;;
69619;Laerm;57653;51.434;5.984;2022-12-20T00:50:14;33.44;31.89;35.93;;
69619;Laerm;57653;51.434;5.984;2022-12-20T00:50:24;52.04;34.62;59.06;;
69619;Laerm;57653;51.434;5.984;2022-12-20T00:50:34;59.62;57.18;62.38;;
69619;Laerm;57653;51.434;5.984;2022-12-20T00:50:45;60.11;57.20;62.60;;
69619;Laerm;57653;51.434;5.984;2022-12-20T00:50:58;51.76;39.70;60.76;;
69619;Laerm;57653;51.434;5.984;2022-12-20T00:51:12;37.12;33.65;44.94;;
69619;Laerm;57653;51.434;5.984;2022-12-20T00:51:27;34.72;32.38;42.03;;
69619;Laerm;57653;51.434;5.984;2022-12-20T00:51:38;33.09;31.86;35.25;;
69619;Laerm;57653;51.434;5.984;2022-12-20T00:51:48;32.65;31.34;35.73;;
69619;Laerm;57653;51.434;5.984;2022-12-20T00:51:58;32.40;30.91;34.99;;
69619;Laerm;57653;51.434;5.984;2022-12-20T00:52:08;32.88;31.56;37.99;;
69619;Laerm;57653;51.434;5.984;2022-12-20T00:52:19;32.52;31.08;44.29;;
69619;Laerm;57653;51.434;5.984;2022-12-20T00:52:29;33.09;30.90;40.72;;
69619;Laerm;57653;51.434;5.984;2022-12-20T00:52:39;32.47;30.97;35.77;;
69619;Laerm;57653;51.434;5.984;2022-12-20T00:52:49;32.82;31.34;40.54;;
69619;Laerm;57653;51.434;5.984;2022-12-20T00:53:00;32.48;31.40;36.06;;
69619;Laerm;57653;51.434;5.984;2022-12-20T00:53:10;32.47;31.24;36.06;;
69619;Laerm;57653;51.434;5.984;2022-12-20T00:53:20;32.31;31.26;34.49;;
69619;Laerm;57653;51.434;5.984;2022-12-20T00:53:31;33.26;31.28;35.63;;
69619;Laerm;57653;51.434;5.984;2022-12-20T00:53:41;35.16;32.84;38.17;;
69619;Laerm;57653;51.434;5.984;2022-12-20T00:53:52;34.16;32.13;36.76;;
69619;Laerm;57653;51.434;5.984;2022-12-20T00:54:02;32.89;31.88;35.74;;
69619;Laerm;57653;51.434;5.984;2022-12-20T00:54:13;33.01;31.61;34.42;;
69619;Laerm;57653;51.434;5.984;2022-12-20T00:54:23;33.01;31.57;41.81;;
69619;Laerm;57653;51.434;5.984;2022-12-20T00:54:35;33.56;31.91;43.03;;
69619;Laerm;57653;51.434;5.984;2022-12-20T00:54:45;33.57;32.14;38.58;;
69619;Laerm;57653;51.434;5.984;2022-12-20T00:54:55;33.25;31.93;35.96;;
69619;Laerm;57653;51.434;5.984;2022-12-20T00:55:05;33.43;31.91;37.15;;
69619;Laerm;57653;51.434;5.984;2022-12-20T00:55:16;33.30;32.10;36.04;;
69619;Laerm;57653;51.434;5.984;2022-12-20T00:55:26;33.12;31.78;36.16;;
69619;Laerm;57653;51.434;5.984;2022-12-20T00:55:43;34.12;32.70;45.86;;
69619;Laerm;57653;51.434;5.984;2022-12-20T00:55:53;37.30;32.67;45.17;;
69619;Laerm;57653;51.434;5.984;2022-12-20T00:56:04;36.17;33.78;45.04;;
69619;Laerm;57653;51.434;5.984;2022-12-20T00:56:15;36.41;33.55;45.86;;
69619;Laerm;57653;51.434;5.984;2022-12-20T00:56:25;39.79;34.95;58.35;;
69619;Laerm;57653;51.434;5.984;2022-12-20T00:56:35;38.48;35.94;44.95;;
69619;Laerm;57653;51.434;5.984;2022-12-20T00:56:46;41.05;36.65;61.49;;
69619;Laerm;57653;51.434;5.984;2022-12-20T00:56:56;40.26;36.18;46.73;;
69619;Laerm;57653;51.434;5.984;2022-12-20T00:57:06;52.80;41.31;63.91;;
69619;Laerm;57653;51.434;5.984;2022-12-20T00:57:16;39.00;36.54;43.03;;
69619;Laerm;57653;51.434;5.984;2022-12-20T00:57:26;39.45;34.84;59.43;;
69619;Laerm;57653;51.434;5.984;2022-12-20T00:57:37;37.38;35.41;48.82;;
69619;Laerm;57653;51.434;5.984;2022-12-20T00:57:47;36.32;34.00;43.51;;
69619;Laerm;57653;51.434;5.984;2022-12-20T00:57:57;35.11;32.68;50.96;;
69619;Laerm;57653;51.434;5.984;2022-12-20T00:58:08;33.35;32.15;36.92;;
69619;Laerm;57653;51.434;5.984;2022-12-20T00:58:18;35.37;32.56;46.16;;
69619;Laerm;57653;51.434;5.984;2022-12-20T00:58:28;33.57;31.72;35.09;;
69619;Laerm;57653;51.434;5.984;2022-12-20T00:58:39;33.51;31.96;43.30;;
69619;Laerm;57653;51.434;5.984;2022-12-20T00:58:50;35.14;32.73;43.69;;
69619;Laerm;57653;51.434;5.984;2022-12-20T00:59:02;34.46;33.18;40.07;;
69619;Laerm;57653;51.434;5.984;2022-12-20T00:59:12;36.57;32.77;48.08;;
69619;Laerm;57653;51.434;5.984;2022-12-20T00:59:22;34.51;32.83;40.02;;
69619;Laerm;57653;51.434;5.984;2022-12-20T00:59:33;37.20;34.66;41.07;;
69619;Laerm;57653;51.434;5.984;2022-12-20T00:59:43;35.39;33.97;37.82;;
69619;Laerm;57653;51.434;5.984;2022-12-20T00:59:53;34.91;33.56;45.54;;